Airfield :
LOGIN :

Register | Disclaimer

   EN    FR    IT 

 










Legend :    VFR   Marginal VFR   IFR   Intensive IFR   Very Intensive IFR
Visi :
Ceiling :
>= 8 km
>= 3000ft
5 to 8 km
1000 to 3000 ft
1500m to 5 km
500 to 1000 ft
800 to 1500m
200 to 500 ft
< 800m
< 200 ft
Symbols :   Thunderstorms  Fog  Heavy snow  Heavy precipitations  Wind > 20 kt
SIGMETs :     Misc.  Thunderstorms  Icing  Turbulence  Mountain Waves  Volcanic Ashes







- Airport Elevation : 53 ft
- IATA code : AGP


LEMG - Malaga

CURRENT METAR :
  • 191330Z 13005KT 100V170 9999 FEW020 19/12 Q1021 NOSIG

EXPIRED METARs :
  • 191300Z 12008KT 090V150 9999 FEW020 19/12 Q1021 NOSIG
  • 191230Z 13007KT 100V160 9999 FEW020 18/12 Q1021 NOSIG
  • 191200Z 11006KT 060V150 9999 FEW020 18/12 Q1022 NOSIG
  • 191130Z 12005KT 060V160 9999 FEW020 19/12 Q1022 NOSIG
  • 191100Z 11002KT 9999 FEW020 18/12 Q1022 NOSIG

TAF TAF LEMG
Valid from the 19 at 12:00 until the 20 at 12:00 UTC


191100Z 1912/2012 12007KT 9999 FEW025 TX20/2012Z TN08/2007Z
BECMG 1918/1922 29007KT
PROB30
TEMPO 2000/2006 BKN014
BECMG 2010/2012 12007KT
No reported NOTAMs for that airfield.



MET'MAP, your aeronautical weather chart ! - Copyright ORBIFLY December 2007 - Disclaimer

ORBIFLY MET'MAP TEAM :

Programming & Development : Alexandra Zaïnal
Concept & Development : Baudouin d'Aumeries
Co-Development & Prog : Marc-Olivier Méhu
Technical & hardware support : Manuel Goepfert

Contact : metmap@orbifly.com




SOURCES & CREDITS :

   NOAA